aviador You're here:

KRKP Decoded Metar

ROCKPORT in TX, USA
Report Time2017-12-16 10:53:00
UTC Time2017-12-16 11:04:21
Flight Rules vfr VFR
Wind360° at 05 kt
W.Decomp.*RWY 36: 5.0 kt HW 0.5 kt LCW
RWY 32: 4.1 kt HW 2.8 kt RCW
Visibility9999 m
Phenomena:N/A
Clouds:Overcast 070 Hf
Expected CloudBase > 1,600 ft AGL from Temp-Dew spread
Ceiling7,000 ft
Temp10°C (ISA -5)
Dew Point06°C (76% RH)
AAT7.3°C
QNH1023 hPa
Density Alt-784 ft
Elevation20 ft
Report Wrong Elevation
Raw Report
KRKP 161053Z AUTO 36005KT 10SM OVC070 10/06 A3020 RMK AO2 SLP227
T01000056=

Extra information for KRKP:More info

Metar Taf Metar & Taf Last 4 Metars F.Rules Stats Wind Profile Meteogram Temp Stats Airport Information Weather charts Add Link Nearby VenuesMetar ALERT Operation Metar Decoded Social comments

AIRNAV info for KRKP